Aeroporto :
LOGIN :

Iscrizione | Disclaimer

   EN    FR    IT 

 










Sommario :    VFR   VFR Marginale   IFR   IFR Intensivo   IFR Molto Intensivo
Visibilità : 
Base nubi : 
>= 8 km
>= 3000ft
5 / 8 km
1000 / 3000 ft
1500m / 5 km
500 / 1000 ft
800 / 1500m
200 / 500 ft
< 800m
< 200 ft
Simboli :   Temporali  Nebbia  Neve Forte  Precipitazioni Forti  Vento > 20 kt
SIGMETs :   Varie  Temporali  Ghiacco  Turbolenza  Onda orograficha  Ceneri Vulcaniche






- Altitudine del aeroporto : 325 ft
- Codice IATA : POX


LFPT - Pontoise

ULTIMO METAR :
  • 100430Z AUTO VRB01KT CAVOK 21/14 Q1013

METARs OBSOLETI :
  • 100400Z AUTO VRB02KT CAVOK 21/14 Q1013
  • 100330Z AUTO VRB01KT CAVOK 22/14 Q1013
  • 100300Z AUTO VRB02KT CAVOK 23/15 Q1013
  • 100230Z AUTO 06009KT CAVOK 23/15 Q1014
  • 100200Z AUTO 07010KT CAVOK 24/15 Q1014

TAF N/A
ATIS : +33 1 30 30 52 08



MetMap, La meteo Aeronautica in un colpo d'occhio ! - Copyright ORBIFLY Dicembre 2007 - Disclaimer

ORBIFLY MET'MAP TEAM :

Programmazione e sviluppo : Alexandra Zaïnal
Concezione : Baudouin d'Aumeries
Aiuto per la programmazione : Marc-Olivier Méhu
Supporto tecnico e logistico : Manuel Goepfert
Aiuto per la traduzione : Arnaldo La Scala

Contatto : metmap@orbifly.com




FONTI E CREDITI :

   NOAA